Time;durP1;ratioP1;P1;durP2;ratioP2;P2;SDS_P1;SDS_P2;PMS_P1;PMS_P2;Temp;Humidity;BMP_temperature;BMP_pressure;BME280_temperature;BME280_humidity;BME280_pressure;Samples;Min_cycle;Max_cycle;Signal;HPM_P1;HPM_P2
2023/12/06 00:01:38;;;;;;;;;;;19.20;37.80;;;;;;5099954;28;20014;-59
2023/12/06 00:04:05;;;;;;;;;;;19.20;37.90;;;;;;5112019;28;19923;-58
2023/12/06 00:06:32;;;;;;;;;;;19.20;37.80;;;;;;5097566;28;19923;-58
2023/12/06 00:08:59;;;;;;;;;;;19.20;37.90;;;;;;5113443;28;19931;-58
2023/12/06 00:11:27;;;;;;;;;;;19.20;37.80;;;;;;5101860;28;19979;-58
2023/12/06 00:13:54;;;;;;;;;;;19.20;37.90;;;;;;5099483;28;19928;-59
2023/12/06 00:16:20;;;;;;;;;;;19.10;37.70;;;;;;5100874;28;19931;-58
2023/12/06 00:18:48;;;;;;;;;;;19.10;37.70;;;;;;5097759;28;19927;-59
2023/12/06 00:21:15;;;;;;;;;;;19.10;37.80;;;;;;5107190;28;19927;-59
2023/12/06 00:23:42;;;;;;;;;;;19.20;37.80;;;;;;5113208;28;19931;-60
2023/12/06 00:26:09;;;;;;;;;;;19.10;37.70;;;;;;5103309;28;19974;-59
2023/12/06 00:28:37;;;;;;;;;;;19.10;37.70;;;;;;5093567;28;19927;-58
2023/12/06 00:31:04;;;;;;;;;;;19.20;37.80;;;;;;5113241;28;20570;-58
2023/12/06 00:33:30;;;;;;;;;;;19.10;37.70;;;;;;5104738;28;19949;-58
2023/12/06 00:35:57;;;;;;;;;;;19.10;37.70;;;;;;5098843;28;19934;-59
2023/12/06 00:38:24;;;;;;;;;;;19.10;37.60;;;;;;5095212;28;19952;-60
2023/12/06 00:40:51;;;;;;;;;;;19.10;37.60;;;;;;5105271;28;19949;-57
2023/12/06 00:43:18;;;;;;;;;;;19.10;37.60;;;;;;5107975;28;19981;-59
2023/12/06 00:45:46;;;;;;;;;;;19.10;37.60;;;;;;5112584;28;19974;-58
2023/12/06 00:48:13;;;;;;;;;;;19.10;37.60;;;;;;5086812;28;19949;-58
2023/12/06 00:50:39;;;;;;;;;;;19.10;37.60;;;;;;5097419;28;19928;-59
2023/12/06 00:53:06;;;;;;;;;;;19.10;37.60;;;;;;5112850;28;19928;-59
2023/12/06 00:55:33;;;;;;;;;;;19.10;37.60;;;;;;5082320;28;19930;-58
2023/12/06 00:58:00;;;;;;;;;;;19.10;37.60;;;;;;5097640;28;19923;-59
2023/12/06 01:00:27;;;;;;;;;;;19.10;37.50;;;;;;5103749;28;19969;-59
2023/12/06 01:02:55;;;;;;;;;;;19.10;37.60;;;;;;5098466;28;19961;-56
2023/12/06 01:05:22;;;;;;;;;;;19.10;37.50;;;;;;5094299;28;19976;-57
2023/12/06 01:07:48;;;;;;;;;;;19.10;37.50;;;;;;5113038;28;19935;-57
2023/12/06 01:10:16;;;;;;;;;;;19.10;37.50;;;;;;5104854;28;19924;-57
2023/12/06 01:12:43;;;;;;;;;;;19.10;37.50;;;;;;5100050;28;19927;-57
2023/12/06 01:15:10;;;;;;;;;;;19.10;37.50;;;;;;5099001;28;19927;-57
2023/12/06 01:17:37;;;;;;;;;;;19.10;37.50;;;;;;5100264;28;19964;-55
2023/12/06 01:20:06;;;;;;;;;;;19.10;37.50;;;;;;5098283;28;19934;-58
2023/12/06 01:22:32;;;;;;;;;;;19.10;37.50;;;;;;5094960;28;19931;-57
2023/12/06 01:24:59;;;;;;;;;;;19.10;37.50;;;;;;5109700;28;19985;-57
2023/12/06 01:27:26;;;;;;;;;;;19.10;37.50;;;;;;5111302;28;19923;-56
2023/12/06 01:29:53;;;;;;;;;;;19.10;37.50;;;;;;5110917;28;19923;-57
2023/12/06 01:32:20;;;;;;;;;;;19.10;37.50;;;;;;5111152;28;19932;-57
2023/12/06 01:34:47;;;;;;;;;;;19.10;37.50;;;;;;5097803;28;19923;-57
2023/12/06 01:37:15;;;;;;;;;;;19.00;37.40;;;;;;5101829;28;20024;-57
2023/12/06 01:39:41;;;;;;;;;;;19.10;37.40;;;;;;5086822;28;20011;-57
2023/12/06 01:42:08;;;;;;;;;;;19.00;37.40;;;;;;5099481;28;19939;-57
2023/12/06 01:44:35;;;;;;;;;;;19.00;37.40;;;;;;5089723;28;19928;-57
2023/12/06 01:47:02;;;;;;;;;;;19.10;37.40;;;;;;5111035;28;19973;-57
2023/12/06 01:49:29;;;;;;;;;;;19.00;37.40;;;;;;5110787;28;19928;-58
2023/12/06 01:51:56;;;;;;;;;;;19.00;37.40;;;;;;5104856;28;19931;-56
2023/12/06 01:54:26;;;;;;;;;;;19.00;37.90;;;;;;5099570;28;19931;-56
2023/12/06 01:56:53;;;;;;;;;;;19.00;37.30;;;;;;5110356;28;19928;-57
2023/12/06 01:59:20;;;;;;;;;;;19.00;37.40;;;;;;5090885;28;19934;-53
2023/12/06 02:01:47;;;;;;;;;;;19.00;37.30;;;;;;5099202;28;19923;-56
2023/12/06 02:04:13;;;;;;;;;;;19.00;37.30;;;;;;5101607;28;19923;-56
2023/12/06 02:06:40;;;;;;;;;;;19.00;37.30;;;;;;5109901;28;19931;-57
2023/12/06 02:09:08;;;;;;;;;;;19.00;37.30;;;;;;5098295;28;19924;-55
2023/12/06 02:11:36;;;;;;;;;;;19.00;37.30;;;;;;5095171;28;19930;-57
2023/12/06 02:14:03;;;;;;;;;;;19.10;37.40;;;;;;5096150;28;19928;-56
2023/12/06 02:16:30;;;;;;;;;;;19.00;37.30;;;;;;5104265;28;19928;-57
2023/12/06 02:18:56;;;;;;;;;;;19.00;37.30;;;;;;5105901;28;19923;-57
2023/12/06 02:21:23;;;;;;;;;;;19.00;37.30;;;;;;5107617;28;20322;-57
2023/12/06 02:23:50;;;;;;;;;;;19.00;37.20;;;;;;5114442;28;19954;-56
2023/12/06 02:26:18;;;;;;;;;;;19.00;37.90;;;;;;5114246;28;20018;-57
2023/12/06 02:28:45;;;;;;;;;;;19.00;37.30;;;;;;5114673;28;19935;-57
2023/12/06 02:31:12;;;;;;;;;;;19.00;37.30;;;;;;5114359;28;19924;-56
2023/12/06 02:33:38;;;;;;;;;;;19.00;37.20;;;;;;5095027;28;19939;-57
2023/12/06 02:36:05;;;;;;;;;;;19.00;37.20;;;;;;5101776;28;19980;-57
2023/12/06 02:38:32;;;;;;;;;;;19.00;37.20;;;;;;5102106;28;19924;-55
2023/12/06 02:40:59;;;;;;;;;;;19.00;37.20;;;;;;5114932;28;19935;-56
2023/12/06 02:43:27;;;;;;;;;;;19.00;37.20;;;;;;5098503;28;19934;-57
2023/12/06 02:45:54;;;;;;;;;;;19.00;37.20;;;;;;5101426;28;19920;-56
2023/12/06 02:48:21;;;;;;;;;;;19.00;37.20;;;;;;5099132;28;19923;-56
2023/12/06 02:50:47;;;;;;;;;;;19.00;37.20;;;;;;5104121;28;19931;-58
2023/12/06 02:53:14;;;;;;;;;;;19.00;37.20;;;;;;5111011;28;19932;-56
2023/12/06 02:55:41;;;;;;;;;;;19.00;37.20;;;;;;5106144;28;19923;-56
2023/12/06 02:58:08;;;;;;;;;;;19.00;37.20;;;;;;5098193;28;19969;-57
2023/12/06 03:00:36;;;;;;;;;;;19.00;37.20;;;;;;5104315;28;19927;-57
2023/12/06 03:03:03;;;;;;;;;;;19.00;37.20;;;;;;5108447;28;20022;-57
2023/12/06 03:05:30;;;;;;;;;;;19.00;37.20;;;;;;5103919;28;19973;-56
2023/12/06 03:07:56;;;;;;;;;;;19.00;37.20;;;;;;5098671;28;20387;-56
2023/12/06 03:10:23;;;;;;;;;;;19.00;37.20;;;;;;5110596;28;19935;-57
2023/12/06 03:12:50;;;;;;;;;;;19.00;37.10;;;;;;5097021;28;19927;-57
2023/12/06 03:15:17;;;;;;;;;;;19.00;37.20;;;;;;5113795;28;19923;-57
2023/12/06 03:17:45;;;;;;;;;;;19.00;37.20;;;;;;5102669;28;19928;-57
2023/12/06 03:20:12;;;;;;;;;;;19.00;37.10;;;;;;5113470;28;20046;-59
2023/12/06 03:22:39;;;;;;;;;;;19.00;37.10;;;;;;5100149;28;20285;-59
2023/12/06 03:25:07;;;;;;;;;;;19.00;37.10;;;;;;5103228;28;20584;-58
2023/12/06 03:27:33;;;;;;;;;;;19.00;37.10;;;;;;5107789;28;20236;-59
2023/12/06 03:30:00;;;;;;;;;;;19.00;37.10;;;;;;5097762;28;20174;-59
2023/12/06 03:32:27;;;;;;;;;;;19.00;37.10;;;;;;5096655;28;19930;-57
2023/12/06 03:34:55;;;;;;;;;;;19.00;37.10;;;;;;5106813;27;19928;-58
2023/12/06 03:37:22;;;;;;;;;;;19.00;37.10;;;;;;5102041;28;19928;-59
2023/12/06 03:39:48;;;;;;;;;;;19.00;37.10;;;;;;5113222;28;19932;-59
2023/12/06 03:42:15;;;;;;;;;;;19.00;37.20;;;;;;5103717;28;20548;-59
2023/12/06 03:44:42;;;;;;;;;;;19.00;37.10;;;;;;5104807;28;19931;-59
2023/12/06 03:47:09;;;;;;;;;;;19.00;37.10;;;;;;5111270;27;20361;-59
2023/12/06 03:49:35;;;;;;;;;;;19.00;37.10;;;;;;5093571;28;19928;-58
2023/12/06 03:52:04;;;;;;;;;;;19.00;37.10;;;;;;5114258;28;20393;-59
2023/12/06 03:54:31;;;;;;;;;;;19.00;37.10;;;;;;5100307;28;19931;-59
2023/12/06 03:56:59;;;;;;;;;;;19.00;37.10;;;;;;5106868;28;19924;-58
2023/12/06 03:59:26;;;;;;;;;;;19.00;37.10;;;;;;5104597;28;19924;-58
2023/12/06 04:01:53;;;;;;;;;;;19.00;37.10;;;;;;5114613;28;19935;-58
2023/12/06 04:04:20;;;;;;;;;;;19.00;37.10;;;;;;5112714;27;19924;-59
2023/12/06 04:06:46;;;;;;;;;;;19.00;37.10;;;;;;5096143;28;19973;-60
2023/12/06 04:09:14;;;;;;;;;;;19.00;37.10;;;;;;5102852;28;19923;-58
2023/12/06 04:11:41;;;;;;;;;;;19.00;37.10;;;;;;5103481;28;19924;-59
2023/12/06 04:14:08;;;;;;;;;;;19.00;37.10;;;;;;5109890;28;19928;-58
2023/12/06 04:16:36;;;;;;;;;;;19.00;37.10;;;;;;5103006;28;19923;-59
2023/12/06 04:19:03;;;;;;;;;;;19.00;37.10;;;;;;5095758;28;19931;-59
2023/12/06 04:21:30;;;;;;;;;;;19.00;37.00;;;;;;5105953;28;19924;-58
2023/12/06 04:23:56;;;;;;;;;;;19.00;37.00;;;;;;5105210;28;19924;-58
2023/12/06 04:26:24;;;;;;;;;;;19.00;37.00;;;;;;5089137;28;19927;-59
2023/12/06 04:28:51;;;;;;;;;;;19.00;37.00;;;;;;5102752;28;19930;-59
2023/12/06 04:31:18;;;;;;;;;;;19.00;37.00;;;;;;5100718;28;19973;-58
2023/12/06 04:33:45;;;;;;;;;;;19.00;37.00;;;;;;5112909;28;19931;-58
2023/12/06 04:36:12;;;;;;;;;;;18.90;37.00;;;;;;5102829;28;19927;-59
2023/12/06 04:38:39;;;;;;;;;;;19.00;37.10;;;;;;5094318;28;19930;-59
2023/12/06 04:41:05;;;;;;;;;;;19.00;37.00;;;;;;5113331;28;19924;-58
2023/12/06 04:43:34;;;;;;;;;;;19.00;37.00;;;;;;5112162;28;19927;-58
2023/12/06 04:46:00;;;;;;;;;;;19.00;37.00;;;;;;5098242;28;20305;-58
2023/12/06 04:48:27;;;;;;;;;;;19.00;37.00;;;;;;5113436;28;19931;-59
2023/12/06 04:50:54;;;;;;;;;;;18.90;37.00;;;;;;5103685;28;19964;-59
2023/12/06 04:53:20;;;;;;;;;;;18.90;37.00;;;;;;5110385;28;19934;-58
2023/12/06 04:55:47;;;;;;;;;;;19.00;37.00;;;;;;5102560;28;19973;-58
2023/12/06 04:58:14;;;;;;;;;;;18.90;37.00;;;;;;5098355;28;19963;-59
2023/12/06 05:00:43;;;;;;;;;;;19.00;37.10;;;;;;5100279;28;19981;-58
2023/12/06 05:03:10;;;;;;;;;;;18.90;37.00;;;;;;5082210;28;19924;-59
2023/12/06 05:05:37;;;;;;;;;;;19.00;37.10;;;;;;5098969;28;19969;-58
2023/12/06 05:08:03;;;;;;;;;;;19.00;37.00;;;;;;5103718;28;19972;-58
2023/12/06 05:10:30;;;;;;;;;;;18.90;37.00;;;;;;5116504;27;19984;-58
2023/12/06 05:12:58;;;;;;;;;;;18.90;37.00;;;;;;5101453;28;20263;-59
2023/12/06 05:15:24;;;;;;;;;;;18.90;37.00;;;;;;5112841;28;19930;-58
2023/12/06 05:17:52;;;;;;;;;;;19.00;37.00;;;;;;5112677;28;19932;-58
2023/12/06 05:20:19;;;;;;;;;;;19.00;37.00;;;;;;5094474;28;19923;-59
2023/12/06 05:22:46;;;;;;;;;;;18.90;37.00;;;;;;5105708;28;19960;-59
2023/12/06 05:25:13;;;;;;;;;;;19.00;37.10;;;;;;5103072;28;19920;-58
2023/12/06 05:27:40;;;;;;;;;;;19.00;37.00;;;;;;5097598;28;19923;-58
2023/12/06 05:30:07;;;;;;;;;;;18.90;37.00;;;;;;5091055;28;20432;-59
2023/12/06 05:32:33;;;;;;;;;;;19.00;37.00;;;;;;5103184;28;20007;-57
2023/12/06 05:35:03;;;;;;;;;;;18.90;37.00;;;;;;5106214;28;19969;-59
2023/12/06 05:37:29;;;;;;;;;;;19.00;37.00;;;;;;5101012;28;19953;-59
2023/12/06 05:39:56;;;;;;;;;;;18.90;36.90;;;;;;5098460;28;19974;-59
2023/12/06 05:42:23;;;;;;;;;;;18.90;37.00;;;;;;5096744;28;19984;-58
2023/12/06 05:44:50;;;;;;;;;;;18.90;37.00;;;;;;5112769;28;19924;-59
2023/12/06 05:47:16;;;;;;;;;;;18.90;36.90;;;;;;5099479;28;19923;-58
2023/12/06 05:49:43;;;;;;;;;;;19.00;37.00;;;;;;5098219;28;19923;-59
2023/12/06 05:52:11;;;;;;;;;;;18.90;36.90;;;;;;5107390;28;19924;-59
2023/12/06 05:54:38;;;;;;;;;;;18.90;36.90;;;;;;5112452;28;19928;-58
2023/12/06 05:57:06;;;;;;;;;;;19.00;37.00;;;;;;5088750;28;19969;-59
2023/12/06 05:59:33;;;;;;;;;;;18.90;36.90;;;;;;5100112;28;19976;-60
2023/12/06 06:01:59;;;;;;;;;;;18.90;36.90;;;;;;5110118;28;20294;-58
2023/12/06 06:04:26;;;;;;;;;;;18.90;36.90;;;;;;5103368;28;19973;-58
2023/12/06 06:06:53;;;;;;;;;;;18.90;36.90;;;;;;5108102;28;20018;-58
2023/12/06 06:09:21;;;;;;;;;;;18.90;37.00;;;;;;5094054;28;19923;-59
2023/12/06 06:11:48;;;;;;;;;;;18.90;36.90;;;;;;5095736;28;20204;-58
2023/12/06 06:14:15;;;;;;;;;;;18.90;36.90;;;;;;5093803;28;20014;-59
2023/12/06 06:16:42;;;;;;;;;;;18.90;36.90;;;;;;5094839;28;19950;-58
2023/12/06 06:19:08;;;;;;;;;;;18.90;36.90;;;;;;5095692;28;19938;-58
2023/12/06 06:21:35;;;;;;;;;;;18.90;36.90;;;;;;5112802;28;19923;-58
2023/12/06 06:24:02;;;;;;;;;;;18.90;36.90;;;;;;5110192;28;19954;-58
2023/12/06 06:26:30;;;;;;;;;;;18.90;36.90;;;;;;5093770;28;20327;-58
2023/12/06 06:28:57;;;;;;;;;;;18.90;36.90;;;;;;5107562;28;19989;-59
2023/12/06 06:31:24;;;;;;;;;;;18.90;36.90;;;;;;5114781;28;19924;-58
2023/12/06 06:33:50;;;;;;;;;;;18.90;36.90;;;;;;5080608;28;19946;-59
2023/12/06 06:36:17;;;;;;;;;;;18.90;36.90;;;;;;5108650;28;19928;-59
2023/12/06 06:38:45;;;;;;;;;;;18.90;36.90;;;;;;5099066;28;19927;-59
2023/12/06 06:41:11;;;;;;;;;;;18.90;36.90;;;;;;5101588;28;19924;-59
2023/12/06 06:43:39;;;;;;;;;;;18.90;36.90;;;;;;5102527;28;19969;-59
2023/12/06 06:46:06;;;;;;;;;;;18.90;36.90;;;;;;5105427;28;19927;-59
2023/12/06 06:48:33;;;;;;;;;;;18.90;36.90;;;;;;5098984;28;19928;-57
2023/12/06 06:51:00;;;;;;;;;;;18.90;36.90;;;;;;5097164;28;19931;-57
2023/12/06 06:53:26;;;;;;;;;;;18.90;36.90;;;;;;5095721;28;19951;-57
2023/12/06 06:55:53;;;;;;;;;;;18.90;36.90;;;;;;5096817;28;19924;-58
2023/12/06 06:58:20;;;;;;;;;;;18.90;36.90;;;;;;5095795;28;19953;-58
2023/12/06 07:00:48;;;;;;;;;;;18.90;36.90;;;;;;5102824;28;20339;-56
2023/12/06 07:03:15;;;;;;;;;;;18.90;36.90;;;;;;5094830;28;19963;-57
2023/12/06 07:05:42;;;;;;;;;;;18.90;36.90;;;;;;5104462;28;19935;-57
2023/12/06 07:08:09;;;;;;;;;;;18.90;36.90;;;;;;5102873;28;19960;-57
2023/12/06 07:10:37;;;;;;;;;;;18.90;36.90;;;;;;5102574;28;19930;-57
2023/12/06 07:13:04;;;;;;;;;;;18.90;36.90;;;;;;5100113;28;19924;-57
2023/12/06 07:15:30;;;;;;;;;;;18.90;36.90;;;;;;5098481;28;19923;-57
2023/12/06 07:17:59;;;;;;;;;;;18.90;36.90;;;;;;5106858;28;19936;-58
2023/12/06 07:20:25;;;;;;;;;;;18.90;36.90;;;;;;5103591;28;19931;-57
2023/12/06 07:22:53;;;;;;;;;;;18.90;36.90;;;;;;5100642;28;19939;-57
2023/12/06 07:25:20;;;;;;;;;;;18.90;36.90;;;;;;5115232;27;19932;-57
2023/12/06 07:27:47;;;;;;;;;;;18.90;36.90;;;;;;5096134;28;19927;-57
2023/12/06 07:30:15;;;;;;;;;;;18.90;36.90;;;;;;5106743;28;19927;-57
2023/12/06 07:32:42;;;;;;;;;;;18.90;36.90;;;;;;5091479;28;19935;-57
2023/12/06 07:35:10;;;;;;;;;;;18.90;36.90;;;;;;5093621;28;19931;-57
2023/12/06 07:37:37;;;;;;;;;;;18.90;36.90;;;;;;5090864;28;19923;-58
2023/12/06 07:40:05;;;;;;;;;;;18.90;36.90;;;;;;5093742;28;20027;-57
2023/12/06 07:42:32;;;;;;;;;;;18.90;36.90;;;;;;5093232;28;19935;-58
2023/12/06 07:44:58;;;;;;;;;;;18.90;36.90;;;;;;5096098;28;19973;-57
2023/12/06 07:47:25;;;;;;;;;;;18.90;37.50;;;;;;5109751;28;19969;-58
2023/12/06 07:49:52;;;;;;;;;;;18.90;36.90;;;;;;5098770;28;19931;-58
2023/12/06 07:52:20;;;;;;;;;;;18.90;37.50;;;;;;5110800;28;19968;-58
2023/12/06 07:54:47;;;;;;;;;;;18.90;36.90;;;;;;5105156;28;20008;-56
2023/12/06 07:57:14;;;;;;;;;;;18.90;36.90;;;;;;5103625;28;19995;-57
2023/12/06 07:59:40;;;;;;;;;;;18.90;36.90;;;;;;5097711;28;20027;-57
2023/12/06 08:02:08;;;;;;;;;;;18.90;37.00;;;;;;5105374;28;19924;-57
2023/12/06 08:04:35;;;;;;;;;;;18.90;36.90;;;;;;5104288;28;20015;-57
2023/12/06 08:07:02;;;;;;;;;;;18.90;37.00;;;;;;5100228;28;19924;-57
2023/12/06 08:09:30;;;;;;;;;;;18.90;37.00;;;;;;5097850;28;19924;-57
2023/12/06 08:11:57;;;;;;;;;;;18.90;37.00;;;;;;5107210;28;19928;-59
2023/12/06 08:14:26;;;;;;;;;;;18.90;37.00;;;;;;5103243;28;19955;-58
2023/12/06 08:16:53;;;;;;;;;;;18.90;37.00;;;;;;5106607;28;19934;-57
2023/12/06 08:19:19;;;;;;;;;;;18.90;37.00;;;;;;5099335;28;19953;-58
2023/12/06 08:21:46;;;;;;;;;;;18.90;37.00;;;;;;5103199;28;19928;-57
2023/12/06 08:24:13;;;;;;;;;;;18.90;37.00;;;;;;5088994;28;19928;-58
2023/12/06 08:26:42;;;;;;;;;;;18.90;37.00;;;;;;5105625;28;19928;-57
2023/12/06 08:29:08;;;;;;;;;;;18.90;37.00;;;;;;5105020;28;19928;-58
2023/12/06 08:31:36;;;;;;;;;;;18.90;37.00;;;;;;5099287;28;19955;-57
2023/12/06 08:34:03;;;;;;;;;;;18.90;37.10;;;;;;5113036;28;19927;-58
2023/12/06 08:36:30;;;;;;;;;;;18.90;37.10;;;;;;5099617;28;19923;-57
2023/12/06 08:38:57;;;;;;;;;;;18.90;37.10;;;;;;5101775;28;19927;-58
2023/12/06 08:41:23;;;;;;;;;;;18.90;37.10;;;;;;5113084;28;19932;-58
2023/12/06 08:43:51;;;;;;;;;;;18.90;37.10;;;;;;5094083;28;19977;-57
2023/12/06 08:46:18;;;;;;;;;;;18.90;37.20;;;;;;5099668;28;20335;-58
2023/12/06 08:48:45;;;;;;;;;;;18.90;37.20;;;;;;5112542;27;19977;-58
2023/12/06 08:51:12;;;;;;;;;;;18.90;37.20;;;;;;5088760;28;19932;-58
2023/12/06 08:53:39;;;;;;;;;;;18.90;37.20;;;;;;5096460;28;20014;-58
2023/12/06 08:56:06;;;;;;;;;;;19.00;37.30;;;;;;5104622;27;19965;-58
2023/12/06 08:58:33;;;;;;;;;;;18.90;37.20;;;;;;5108107;28;19931;-58
2023/12/06 09:01:01;;;;;;;;;;;19.00;37.30;;;;;;5093707;28;19924;-58
2023/12/06 09:03:27;;;;;;;;;;;19.00;37.30;;;;;;5103510;28;19954;-58
2023/12/06 09:05:54;;;;;;;;;;;19.00;37.40;;;;;;5099537;28;19931;-58
2023/12/06 09:08:21;;;;;;;;;;;19.00;37.40;;;;;;5093953;28;20388;-57
2023/12/06 09:10:49;;;;;;;;;;;19.00;37.40;;;;;;5094366;28;19924;-57
2023/12/06 09:13:16;;;;;;;;;;;19.00;37.40;;;;;;5093713;28;20347;-58
2023/12/06 09:15:43;;;;;;;;;;;19.00;37.40;;;;;;5095465;28;19924;-58
2023/12/06 09:18:11;;;;;;;;;;;19.00;37.40;;;;;;5085967;28;19931;-58
2023/12/06 09:20:38;;;;;;;;;;;19.00;37.40;;;;;;5087180;28;19931;-58
2023/12/06 09:23:04;;;;;;;;;;;19.00;37.40;;;;;;5121388;27;19927;-58
2023/12/06 09:25:31;;;;;;;;;;;19.00;37.40;;;;;;5090330;28;19929;-57
2023/12/06 09:27:58;;;;;;;;;;;19.00;37.40;;;;;;5116085;27;19973;-57
2023/12/06 09:30:26;;;;;;;;;;;19.00;37.40;;;;;;5112611;28;19927;-57
2023/12/06 09:32:52;;;;;;;;;;;19.00;37.40;;;;;;5126766;27;19950;-58
2023/12/06 09:35:20;;;;;;;;;;;19.00;37.40;;;;;;5100405;27;19931;-57
2023/12/06 09:37:47;;;;;;;;;;;19.00;37.40;;;;;;5092798;28;19984;-57
2023/12/06 09:40:14;;;;;;;;;;;19.00;37.40;;;;;;5104339;27;19950;-57
2023/12/06 09:42:42;;;;;;;;;;;19.00;37.40;;;;;;5088373;28;19924;-57
2023/12/06 09:45:09;;;;;;;;;;;19.00;37.40;;;;;;5084915;28;20005;-58
2023/12/06 09:47:36;;;;;;;;;;;19.00;37.40;;;;;;5108984;28;19927;-57
2023/12/06 09:50:03;;;;;;;;;;;19.00;37.40;;;;;;5098148;28;19931;-58
2023/12/06 09:52:31;;;;;;;;;;;19.00;37.40;;;;;;5092510;28;19927;-59
2023/12/06 09:54:59;;;;;;;;;;;19.00;37.40;;;;;;5099198;28;19924;-58
2023/12/06 09:57:26;;;;;;;;;;;19.00;37.30;;;;;;5100391;28;19924;-59
2023/12/06 09:59:52;;;;;;;;;;;19.00;37.20;;;;;;5082126;28;19975;-57
2023/12/06 10:02:19;;;;;;;;;;;19.00;37.20;;;;;;5084870;28;19924;-58
2023/12/06 10:04:46;;;;;;;;;;;19.00;37.20;;;;;;5110106;28;19962;-57
2023/12/06 10:07:12;;;;;;;;;;;19.00;37.20;;;;;;5094504;28;19968;-57
2023/12/06 10:09:48;;;;;;;;;;;19.00;37.30;;;;;;5093899;28;19932;-58
2023/12/06 10:12:15;;;;;;;;;;;19.00;37.30;;;;;;5089726;28;19927;-58
2023/12/06 10:14:42;;;;;;;;;;;19.00;37.40;;;;;;5091456;28;19924;-57
2023/12/06 10:17:09;;;;;;;;;;;19.00;37.40;;;;;;5093029;28;19927;-58
2023/12/06 10:19:36;;;;;;;;;;;19.00;37.40;;;;;;5110822;28;19924;-58
2023/12/06 10:22:04;;;;;;;;;;;19.00;37.40;;;;;;5094329;28;20224;-58
2023/12/06 10:24:30;;;;;;;;;;;19.00;37.40;;;;;;5094130;28;19927;-58
2023/12/06 10:27:03;;;;;;;;;;;19.00;37.40;;;;;;5092732;28;19931;-58
2023/12/06 10:29:30;;;;;;;;;;;19.00;37.40;;;;;;5112094;28;19931;-58
2023/12/06 10:31:56;;;;;;;;;;;19.00;37.50;;;;;;5111559;28;19924;-57
2023/12/06 10:34:23;;;;;;;;;;;19.00;37.50;;;;;;5110918;28;19924;-58
2023/12/06 10:36:50;;;;;;;;;;;19.00;37.50;;;;;;5093413;28;20389;-58
2023/12/06 10:39:17;;;;;;;;;;;19.00;37.50;;;;;;5090374;28;19928;-58
2023/12/06 10:41:43;;;;;;;;;;;19.00;37.50;;;;;;5115794;28;19924;-56
2023/12/06 10:44:12;;;;;;;;;;;19.00;37.50;;;;;;5095988;28;19981;-58
2023/12/06 10:46:38;;;;;;;;;;;19.00;37.50;;;;;;5110911;28;19924;-57
2023/12/06 10:49:05;;;;;;;;;;;19.00;37.50;;;;;;5096856;28;19931;-58
2023/12/06 10:51:32;;;;;;;;;;;19.00;37.50;;;;;;5096099;28;20381;-58
2023/12/06 10:54:00;;;;;;;;;;;19.00;37.50;;;;;;5096799;28;20343;-57
2023/12/06 10:56:27;;;;;;;;;;;19.00;37.50;;;;;;5099473;28;19969;-58
2023/12/06 10:58:54;;;;;;;;;;;19.00;37.50;;;;;;5113562;28;19987;-58
2023/12/06 11:01:22;;;;;;;;;;;19.00;37.50;;;;;;5090139;28;19928;-57
2023/12/06 11:03:50;;;;;;;;;;;19.00;37.50;;;;;;5115746;27;19934;-58
2023/12/06 11:06:19;;;;;;;;;;;19.00;37.50;;;;;;5098581;28;19981;-58
2023/12/06 11:08:50;;;;;;;;;;;19.00;37.60;;;;;;5123120;27;19928;-58
2023/12/06 11:11:23;;;;;;;;;;;19.00;37.60;;;;;;5105378;27;20388;-58
2023/12/06 11:13:52;;;;;;;;;;;19.00;34.80;;;;;;5111074;28;19927;-56
2023/12/06 11:16:24;;;;;;;;;;;18.90;30.60;;;;;;5097508;28;19924;-55
2023/12/06 11:18:53;;;;;;;;;;;18.60;29.80;;;;;;5103550;28;20030;-58
2023/12/06 11:21:19;;;;;;;;;;;18.30;30.70;;;;;;5103467;28;20316;-58
2023/12/06 11:23:46;;;;;;;;;;;18.20;32.00;;;;;;5096336;28;20026;-58
2023/12/06 11:26:13;;;;;;;;;;;18.10;33.00;;;;;;5090733;28;19924;-57
2023/12/06 11:28:40;;;;;;;;;;;18.00;33.70;;;;;;5101590;28;19931;-58
2023/12/06 11:31:07;;;;;;;;;;;18.00;34.20;;;;;;5114558;28;19931;-59
2023/12/06 11:33:34;;;;;;;;;;;17.90;31.10;;;;;;5096042;28;20326;-58
2023/12/06 11:36:02;;;;;;;;;;;17.80;31.00;;;;;;5114233;28;19931;-59
2023/12/06 11:38:32;;;;;;;;;;;17.70;32.00;;;;;;5090808;27;19959;-59
2023/12/06 11:41:00;;;;;;;;;;;17.60;32.80;;;;;;5096156;28;19923;-58
2023/12/06 11:43:30;;;;;;;;;;;17.60;33.40;;;;;;5096568;28;20628;-58
2023/12/06 11:46:02;;;;;;;;;;;17.60;33.90;;;;;;5095853;28;19924;-58
2023/12/06 11:48:28;;;;;;;;;;;17.60;34.30;;;;;;5094333;28;19977;-59
2023/12/06 11:50:56;;;;;;;;;;;17.70;34.60;;;;;;5093489;28;19931;-58
2023/12/06 11:53:24;;;;;;;;;;;17.70;34.90;;;;;;5096030;28;19977;-59
2023/12/06 11:55:51;;;;;;;;;;;17.80;35.20;;;;;;5094217;28;20180;-59
2023/12/06 11:58:18;;;;;;;;;;;17.80;35.30;;;;;;5113504;28;19924;-58
2023/12/06 12:00:46;;;;;;;;;;;17.90;35.50;;;;;;5099812;28;19989;-59
2023/12/06 12:03:12;;;;;;;;;;;17.90;35.40;;;;;;5096146;28;19954;-59
2023/12/06 12:05:39;;;;;;;;;;;18.00;35.60;;;;;;5093495;28;19928;-58
2023/12/06 12:08:07;;;;;;;;;;;18.00;35.60;;;;;;5094206;28;19930;-59
2023/12/06 12:10:35;;;;;;;;;;;18.10;35.80;;;;;;5075859;28;20319;-58
2023/12/06 12:13:02;;;;;;;;;;;18.10;35.80;;;;;;5113307;28;19927;-58
2023/12/06 12:15:29;;;;;;;;;;;18.10;35.80;;;;;;5110474;28;19976;-58
2023/12/06 12:17:56;;;;;;;;;;;18.20;35.90;;;;;;5099473;28;19931;-59
2023/12/06 12:20:23;;;;;;;;;;;18.20;35.90;;;;;;5092245;28;19975;-59
2023/12/06 12:22:50;;;;;;;;;;;18.20;36.00;;;;;;5109088;28;19928;-58
2023/12/06 12:25:17;;;;;;;;;;;18.20;36.00;;;;;;5092325;28;19932;-59
2023/12/06 12:27:45;;;;;;;;;;;18.30;36.10;;;;;;5095522;28;19924;-59
2023/12/06 12:30:13;;;;;;;;;;;18.30;36.20;;;;;;5096945;28;19928;-59
2023/12/06 12:32:40;;;;;;;;;;;18.30;36.20;;;;;;5082584;28;19924;-59
2023/12/06 12:35:08;;;;;;;;;;;18.30;36.30;;;;;;5111358;28;19985;-60
2023/12/06 12:37:35;;;;;;;;;;;18.30;36.30;;;;;;5106330;28;19931;-60
2023/12/06 12:40:01;;;;;;;;;;;18.40;36.40;;;;;;5097101;28;19927;-59
2023/12/06 12:42:28;;;;;;;;;;;18.40;36.50;;;;;;5093600;28;20378;-60
2023/12/06 12:44:57;;;;;;;;;;;18.40;36.50;;;;;;5094108;28;20000;-59
2023/12/06 12:47:24;;;;;;;;;;;18.50;36.70;;;;;;5094508;28;19956;-59
2023/12/06 12:49:51;;;;;;;;;;;18.50;36.60;;;;;;5093450;28;20010;-59
2023/12/06 12:52:17;;;;;;;;;;;18.50;36.70;;;;;;5092069;28;19959;-59
2023/12/06 12:54:46;;;;;;;;;;;18.50;36.80;;;;;;5093023;28;20267;-58
2023/12/06 12:57:13;;;;;;;;;;;18.60;36.90;;;;;;5111802;28;19928;-58
2023/12/06 12:59:41;;;;;;;;;;;18.60;37.00;;;;;;5093365;28;20300;-58
2023/12/06 13:02:10;;;;;;;;;;;18.60;37.10;;;;;;5110092;28;19927;-58
2023/12/06 13:04:38;;;;;;;;;;;18.60;37.10;;;;;;5112070;28;19928;-57
2023/12/06 13:07:05;;;;;;;;;;;18.60;37.20;;;;;;5087795;28;19935;-57
2023/12/06 13:09:32;;;;;;;;;;;18.70;37.20;;;;;;5093677;28;21074;-58
2023/12/06 13:11:59;;;;;;;;;;;18.70;37.20;;;;;;5111603;27;19935;-57
2023/12/06 13:14:25;;;;;;;;;;;18.70;37.30;;;;;;5093462;28;19985;-58
2023/12/06 13:16:52;;;;;;;;;;;18.70;37.20;;;;;;5088504;28;19931;-58
2023/12/06 13:19:20;;;;;;;;;;;18.70;37.30;;;;;;5093431;28;19928;-58
2023/12/06 13:21:47;;;;;;;;;;;18.70;37.30;;;;;;5091968;28;19935;-57
2023/12/06 13:24:14;;;;;;;;;;;18.80;37.30;;;;;;5093394;28;19931;-57
2023/12/06 13:26:40;;;;;;;;;;;18.80;37.40;;;;;;5109588;28;19923;-58
2023/12/06 13:29:07;;;;;;;;;;;18.80;37.40;;;;;;5092312;28;19928;-58
2023/12/06 13:31:36;;;;;;;;;;;18.80;37.40;;;;;;5092675;28;19927;-57
2023/12/06 13:34:02;;;;;;;;;;;18.80;37.40;;;;;;5093441;28;19924;-58
2023/12/06 13:36:31;;;;;;;;;;;18.80;37.50;;;;;;5111107;28;19924;-58
2023/12/06 13:38:58;;;;;;;;;;;18.80;37.50;;;;;;5071308;28;19931;-58
2023/12/06 13:41:25;;;;;;;;;;;18.80;37.50;;;;;;5091577;28;19924;-56
2023/12/06 13:43:52;;;;;;;;;;;18.80;37.50;;;;;;5091336;28;19938;-58
2023/12/06 13:46:18;;;;;;;;;;;18.90;37.60;;;;;;5106556;28;19924;-57
2023/12/06 13:48:45;;;;;;;;;;;18.90;37.70;;;;;;5100965;27;19924;-59
2023/12/06 13:51:12;;;;;;;;;;;18.90;37.70;;;;;;5091767;28;19927;-59
2023/12/06 13:53:40;;;;;;;;;;;18.90;37.70;;;;;;5109899;28;19963;-58
2023/12/06 13:56:09;;;;;;;;;;;18.90;37.70;;;;;;5092835;28;19984;-58
2023/12/06 13:58:36;;;;;;;;;;;18.90;37.70;;;;;;5090394;28;19966;-58
2023/12/06 14:01:03;;;;;;;;;;;18.90;37.70;;;;;;5096812;28;20351;-58
2023/12/06 14:03:30;;;;;;;;;;;18.90;37.60;;;;;;5096255;28;19943;-59
2023/12/06 14:05:57;;;;;;;;;;;18.90;37.60;;;;;;5096502;28;19927;-58
2023/12/06 14:08:24;;;;;;;;;;;18.90;37.60;;;;;;5092479;28;19928;-58
2023/12/06 14:10:53;;;;;;;;;;;18.90;37.60;;;;;;5102935;28;19938;-59
2023/12/06 14:13:19;;;;;;;;;;;18.90;37.60;;;;;;5093783;28;19928;-59
2023/12/06 14:15:46;;;;;;;;;;;18.90;37.50;;;;;;5099563;27;19931;-59